createdAt,value
2018-11-07T00:02:00.868Z,44.37
2018-11-07T00:04:29.470Z,41.50
2018-11-07T00:06:58.098Z,39.37
2018-11-07T00:09:26.736Z,39.10
2018-11-07T00:11:55.333Z,42.20
2018-11-07T00:14:24.136Z,41.20
2018-11-07T00:16:53.359Z,42.03
2018-11-07T00:19:21.987Z,42.10
2018-11-07T00:21:50.623Z,40.97
2018-11-07T00:24:19.164Z,44.00
2018-11-07T00:26:47.744Z,40.87
2018-11-07T00:29:16.350Z,42.50
2018-11-07T00:31:45.034Z,41.87
2018-11-07T00:34:13.981Z,42.03
2018-11-07T00:36:42.557Z,41.53
2018-11-07T00:39:11.273Z,40.67
2018-11-07T00:41:39.878Z,40.10
2018-11-07T00:44:08.486Z,40.63
2018-11-07T00:46:37.081Z,43.00
2018-11-07T00:49:05.771Z,40.50
2018-11-07T00:51:34.393Z,40.70
2018-11-07T00:54:03.038Z,41.77
2018-11-07T00:56:31.689Z,42.27
2018-11-07T00:59:00.299Z,42.10
2018-11-07T01:01:29.029Z,43.50
2018-11-07T01:03:57.610Z,39.97
2018-11-07T01:06:26.223Z,42.00
2018-11-07T01:08:54.801Z,42.10
2018-11-07T01:11:23.387Z,41.50
2018-11-07T01:13:51.944Z,43.83
2018-11-07T01:16:20.578Z,40.63
2018-11-07T01:18:49.166Z,41.47
2018-11-07T01:21:17.743Z,41.40
2018-11-07T01:23:46.319Z,40.20
2018-11-07T01:26:14.933Z,41.67
2018-11-07T01:28:43.539Z,42.60
2018-11-07T01:31:12.572Z,42.07
2018-11-07T01:33:41.161Z,42.17
2018-11-07T01:36:09.826Z,43.20
2018-11-07T01:38:38.466Z,42.73
2018-11-07T01:41:07.070Z,41.63
2018-11-07T01:43:35.657Z,42.90
2018-11-07T01:46:04.305Z,41.80
2018-11-07T01:48:32.966Z,42.90
2018-11-07T01:51:01.604Z,41.70
2018-11-07T01:53:30.255Z,41.63
2018-11-07T01:55:58.881Z,41.27
2018-11-07T01:58:27.461Z,41.50
2018-11-07T02:00:56.110Z,41.00
2018-11-07T02:03:24.904Z,41.73
2018-11-07T02:05:53.487Z,40.80
2018-11-07T02:08:22.392Z,43.03
2018-11-07T02:10:50.975Z,40.77
2018-11-07T02:13:19.565Z,38.73
2018-11-07T02:15:48.189Z,41.57
2018-11-07T02:18:16.786Z,41.43
2018-11-07T02:20:45.361Z,39.70
2018-11-07T02:23:13.914Z,41.87
2018-11-07T02:25:42.447Z,38.27
2018-11-07T02:28:10.998Z,38.80
2018-11-07T02:30:39.752Z,39.50
2018-11-07T02:33:08.367Z,40.83
2018-11-07T02:35:36.967Z,41.17
2018-11-07T02:38:05.577Z,42.23
2018-11-07T02:40:34.247Z,41.10
2018-11-07T02:43:03.162Z,41.10
2018-11-07T02:45:31.743Z,42.47
2018-11-07T02:48:00.366Z,42.87
2018-11-07T02:50:28.941Z,40.47
2018-11-07T02:52:57.524Z,39.90
2018-11-07T02:55:26.091Z,41.20
2018-11-07T02:57:54.711Z,41.07
2018-11-07T03:00:23.323Z,44.40
2018-11-07T03:02:51.883Z,41.57
2018-11-07T03:05:20.538Z,41.03
2018-11-07T03:07:49.144Z,42.17
2018-11-07T03:10:17.831Z,40.87
2018-11-07T03:12:46.435Z,42.30
2018-11-07T03:15:15.062Z,40.13
2018-11-07T03:17:43.798Z,39.60
2018-11-07T03:20:13.343Z,41.80
2018-11-07T03:22:42.360Z,39.90
2018-11-07T03:25:10.925Z,39.17
2018-11-07T03:27:39.584Z,42.70
2018-11-07T03:30:09.112Z,40.60
2018-11-07T03:32:37.742Z,42.30
2018-11-07T03:35:10.798Z,41.83
2018-11-07T03:37:39.451Z,42.40
2018-11-07T03:40:08.081Z,40.27
2018-11-07T03:42:36.682Z,42.07
2018-11-07T03:45:05.643Z,42.37
2018-11-07T03:47:34.256Z,41.77
2018-11-07T03:50:02.829Z,40.93
2018-11-07T03:52:31.395Z,44.30
2018-11-07T03:55:00.118Z,43.67
2018-11-07T03:57:28.724Z,41.77
2018-11-07T03:59:57.302Z,43.40
2018-11-07T04:02:25.876Z,41.70
2018-11-07T04:04:54.571Z,40.97
2018-11-07T04:07:23.160Z,40.10
2018-11-07T04:09:51.701Z,37.50
2018-11-07T04:12:20.291Z,42.10
2018-11-07T04:14:48.894Z,39.60
2018-11-07T04:17:17.469Z,41.40
2018-11-07T04:19:46.137Z,43.03
2018-11-07T04:22:14.746Z,40.77
2018-11-07T04:24:43.489Z,43.13
2018-11-07T04:27:17.566Z,41.27
2018-11-07T04:29:46.853Z,41.67
2018-11-07T04:32:15.461Z,41.90
2018-11-07T04:34:44.223Z,42.10
2018-11-07T04:37:12.949Z,41.90
2018-11-07T04:39:41.589Z,41.97
2018-11-07T04:42:10.289Z,41.83
2018-11-07T04:47:12.778Z,42.60
2018-11-07T04:49:41.370Z,43.40
2018-11-07T04:52:10.081Z,43.03
2018-11-07T04:54:38.690Z,42.20
2018-11-07T04:57:07.345Z,41.70
2018-11-07T04:59:36.096Z,42.53
2018-11-07T05:02:04.750Z,43.73
2018-11-07T05:04:33.334Z,44.03
2018-11-07T05:07:01.909Z,43.73
2018-11-07T05:09:30.586Z,43.20
2018-11-07T05:11:59.232Z,46.07
2018-11-07T05:14:27.897Z,43.47
2018-11-07T05:16:56.568Z,43.93
2018-11-07T05:19:25.265Z,44.67
2018-11-07T05:21:54.954Z,44.90
2018-11-07T05:24:23.606Z,44.20
2018-11-07T05:26:52.241Z,43.33
2018-11-07T05:29:20.957Z,45.30
2018-11-07T05:31:49.704Z,42.57
2018-11-07T05:34:18.332Z,44.63
2018-11-07T05:36:47.043Z,46.20
2018-11-07T05:39:15.738Z,43.87
2018-11-07T05:41:44.397Z,45.10
2018-11-07T05:44:13.109Z,45.00
2018-11-07T05:46:41.770Z,42.60
2018-11-07T05:49:10.415Z,44.00
2018-11-07T05:51:39.204Z,42.53
2018-11-07T05:54:08.050Z,45.17
2018-11-07T05:56:36.773Z,45.43
2018-11-07T05:59:05.614Z,44.83
2018-11-07T06:01:34.258Z,44.30
2018-11-07T06:04:03.323Z,44.83
2018-11-07T06:06:31.919Z,44.60
2018-11-07T06:09:00.558Z,45.57
2018-11-07T06:11:29.546Z,44.93
2018-11-07T06:13:58.238Z,44.67
2018-11-07T06:16:26.914Z,45.53
2018-11-07T06:18:55.604Z,43.53
2018-11-07T06:21:24.265Z,44.20
2018-11-07T06:23:52.939Z,46.50
2018-11-07T06:26:21.568Z,45.33
2018-11-07T06:28:50.491Z,44.27
2018-11-07T06:31:19.240Z,45.53
2018-11-07T06:33:47.942Z,45.57
2018-11-07T06:36:16.568Z,46.57
2018-11-07T06:38:45.721Z,45.20
2018-11-07T06:41:14.306Z,52.40
2018-11-07T06:43:42.945Z,49.10
2018-11-07T06:46:12.018Z,44.63
2018-11-07T06:48:40.735Z,43.00
2018-11-07T06:51:09.374Z,43.20
2018-11-07T06:53:38.000Z,42.50
2018-11-07T06:56:06.666Z,45.57
2018-11-07T06:58:35.296Z,44.20
2018-11-07T07:01:04.002Z,44.57
2018-11-07T07:03:32.625Z,42.43
2018-11-07T07:06:01.292Z,42.33
2018-11-07T07:08:29.960Z,42.20
2018-11-07T07:10:58.686Z,41.83
2018-11-07T07:13:27.391Z,40.27
2018-11-07T07:15:56.162Z,44.50
2018-11-07T07:18:24.833Z,44.00
2018-11-07T07:20:53.522Z,40.27
2018-11-07T07:23:22.172Z,41.90
2018-11-07T07:25:50.822Z,44.43
2018-11-07T07:28:19.463Z,42.67
2018-11-07T07:30:48.090Z,41.63
2018-11-07T07:33:16.821Z,42.07
2018-11-07T07:35:45.377Z,41.90
2018-11-07T07:38:14.050Z,41.20
2018-11-07T07:40:42.813Z,41.73
2018-11-07T07:43:11.493Z,39.90
2018-11-07T07:45:40.211Z,41.87
2018-11-07T07:48:09.054Z,41.17
2018-11-07T07:50:37.832Z,41.60
2018-11-07T07:53:06.545Z,42.23
2018-11-07T07:55:35.200Z,41.43
2018-11-07T07:58:03.947Z,41.30
2018-11-07T08:00:32.674Z,40.48
2018-11-07T08:03:01.938Z,41.70
2018-11-07T08:05:30.865Z,42.33
2018-11-07T08:08:00.969Z,40.30
2018-11-07T08:10:30.256Z,40.53
2018-11-07T08:12:59.755Z,39.97
2018-11-07T08:15:31.357Z,42.60
2018-11-07T08:18:00.004Z,41.93
2018-11-07T08:20:28.752Z,38.87
2018-11-07T08:23:00.172Z,37.40
2018-11-07T08:25:28.861Z,40.93
2018-11-07T08:30:35.400Z,40.80
2018-11-07T08:33:04.239Z,38.40
2018-11-07T08:35:33.136Z,40.00
2018-11-07T08:38:02.136Z,40.17
2018-11-07T08:40:32.001Z,40.63
2018-11-07T08:43:00.876Z,40.57
2018-11-07T08:45:31.161Z,38.57
2018-11-07T08:48:01.920Z,39.20
2018-11-07T08:50:30.536Z,41.00
2018-11-07T08:53:00.118Z,39.30
2018-11-07T08:55:29.328Z,39.97
2018-11-07T08:57:58.453Z,39.50
2018-11-07T09:00:27.367Z,37.27
2018-11-07T09:02:56.062Z,38.40
2018-11-07T09:05:27.051Z,38.73
2018-11-07T09:07:56.066Z,38.00
2018-11-07T09:10:25.411Z,39.60
2018-11-07T09:12:54.083Z,39.20
2018-11-07T09:15:23.612Z,41.67
2018-11-07T09:17:52.251Z,39.43
2018-11-07T09:20:25.043Z,39.97
2018-11-07T09:22:53.667Z,37.60
2018-11-07T09:25:22.325Z,41.97
2018-11-07T09:27:51.019Z,41.23
2018-11-07T09:30:20.970Z,42.03
2018-11-07T09:32:49.766Z,40.60
2018-11-07T09:35:18.853Z,40.13
2018-11-07T09:37:47.701Z,39.83
2018-11-07T09:40:17.687Z,40.57
2018-11-07T09:42:47.007Z,38.63
2018-11-07T09:45:16.952Z,37.93
2018-11-07T09:47:46.037Z,39.80
2018-11-07T09:50:15.525Z,39.23
2018-11-07T09:52:44.727Z,37.50
2018-11-07T09:55:14.626Z,39.23
2018-11-07T09:57:43.387Z,42.47
2018-11-07T10:00:14.624Z,40.90
2018-11-07T10:02:43.706Z,41.57
2018-11-07T10:05:13.107Z,41.73
2018-11-07T10:07:42.179Z,41.13
2018-11-07T10:10:12.913Z,40.10
2018-11-07T10:12:41.885Z,39.60
2018-11-07T10:15:11.072Z,39.00
2018-11-07T10:17:39.744Z,40.27
2018-11-07T10:20:10.994Z,40.10
2018-11-07T10:22:39.649Z,39.03
2018-11-07T10:25:08.762Z,40.83
2018-11-07T10:27:37.830Z,41.07
2018-11-07T10:30:07.843Z,38.83
2018-11-07T10:32:36.123Z,37.83
2018-11-07T10:35:05.831Z,38.03
2018-11-07T10:37:34.526Z,39.77
2018-11-07T10:40:03.231Z,39.23
2018-11-07T10:42:31.879Z,39.07
2018-11-07T10:45:00.696Z,41.00
2018-11-07T10:47:29.343Z,38.53
2018-11-07T10:49:58.309Z,38.43
2018-11-07T10:52:26.997Z,41.23
2018-11-07T10:54:55.706Z,41.20
2018-11-07T10:57:25.098Z,39.80
2018-11-07T10:59:54.844Z,38.97
2018-11-07T11:02:28.752Z,37.67
2018-11-07T11:04:57.439Z,39.00
2018-11-07T11:07:26.231Z,38.77
2018-11-07T11:09:54.969Z,39.03
2018-11-07T11:12:24.232Z,36.87
2018-11-07T11:14:53.154Z,37.70
2018-11-07T11:17:21.839Z,38.47
2018-11-07T11:19:50.678Z,38.50
2018-11-07T11:22:19.357Z,37.20
2018-11-07T11:24:47.997Z,37.53
2018-11-07T11:27:16.650Z,35.73
2018-11-07T11:29:45.266Z,38.27
2018-11-07T11:32:13.917Z,38.80
2018-11-07T11:34:42.864Z,39.27
2018-11-07T11:37:11.470Z,37.73
2018-11-07T11:39:40.115Z,38.43
2018-11-07T11:42:09.194Z,37.30
2018-11-07T11:44:37.882Z,37.20
2018-11-07T11:47:06.523Z,38.00
2018-11-07T11:49:35.528Z,36.27
2018-11-07T11:52:04.182Z,37.23
2018-11-07T11:54:33.826Z,36.70
2018-11-07T11:57:02.650Z,37.37
2018-11-07T11:59:31.474Z,37.13
2018-11-07T12:02:00.097Z,37.10
2018-11-07T12:04:28.697Z,38.77
2018-11-07T12:06:57.359Z,37.07
2018-11-07T12:09:25.983Z,37.73
2018-11-07T12:11:54.661Z,38.30
2018-11-07T12:14:23.951Z,40.10
2018-11-07T12:16:52.557Z,36.37
2018-11-07T12:19:21.210Z,38.60
2018-11-07T12:21:50.287Z,36.33
2018-11-07T12:24:18.976Z,37.47
2018-11-07T12:26:47.609Z,36.80
2018-11-07T12:29:16.255Z,37.33
2018-11-07T12:31:44.963Z,37.80
2018-11-07T12:34:14.750Z,36.93
2018-11-07T12:36:43.491Z,35.83
2018-11-07T12:39:12.281Z,37.17
2018-11-07T12:41:40.986Z,39.07
2018-11-07T12:44:09.714Z,38.63
2018-11-07T12:46:38.379Z,36.67
2018-11-07T12:49:07.068Z,36.10
2018-11-07T12:51:35.662Z,35.30
2018-11-07T12:54:04.338Z,38.37
2018-11-07T12:56:32.966Z,37.57
2018-11-07T12:59:01.708Z,38.27
2018-11-07T13:01:30.292Z,35.93
2018-11-07T13:03:58.913Z,38.20
2018-11-07T13:06:27.570Z,36.87
2018-11-07T13:08:56.237Z,36.67
2018-11-07T13:11:24.936Z,36.13
2018-11-07T13:13:53.525Z,37.30
2018-11-07T13:16:22.152Z,36.40
2018-11-07T13:18:50.866Z,36.50
2018-11-07T13:21:19.642Z,36.70
2018-11-07T13:23:48.310Z,36.30
2018-11-07T13:26:17.001Z,36.87
2018-11-07T13:28:45.633Z,34.77
2018-11-07T13:31:20.600Z,34.70
2018-11-07T13:33:49.509Z,36.60
2018-11-07T13:36:18.185Z,34.17
2018-11-07T13:38:47.216Z,34.80
2018-11-07T13:41:15.711Z,35.20
2018-11-07T13:43:44.374Z,36.77
2018-11-07T13:46:13.081Z,35.80
2018-11-07T13:48:41.716Z,35.17
2018-11-07T13:51:10.389Z,33.90
2018-11-07T13:53:39.022Z,35.73
2018-11-07T13:56:07.641Z,34.37
2018-11-07T13:58:36.266Z,34.10
2018-11-07T14:01:04.956Z,34.57
2018-11-07T14:03:33.705Z,36.07
2018-11-07T14:06:02.378Z,36.57
2018-11-07T14:08:30.989Z,35.93
2018-11-07T14:10:59.610Z,36.53
2018-11-07T14:13:28.266Z,35.23
2018-11-07T14:15:56.945Z,39.30
2018-11-07T14:18:25.573Z,36.37
2018-11-07T14:20:55.140Z,37.40
2018-11-07T14:23:23.870Z,36.77
2018-11-07T14:25:52.810Z,39.60
2018-11-07T14:28:21.935Z,37.40
2018-11-07T14:30:50.310Z,37.67
2018-11-07T14:33:19.788Z,36.00
2018-11-07T14:35:48.430Z,36.00
2018-11-07T14:38:17.030Z,37.77
2018-11-07T14:40:45.674Z,38.93
2018-11-07T14:43:14.301Z,38.60
2018-11-07T14:45:42.902Z,40.50
2018-11-07T14:48:11.659Z,39.90
2018-11-07T14:50:40.276Z,37.67
2018-11-07T14:53:08.908Z,39.93
2018-11-07T14:55:37.566Z,38.10
2018-11-07T14:58:06.189Z,38.53
2018-11-07T15:00:34.866Z,38.90
2018-11-07T15:03:03.498Z,38.97
2018-11-07T15:05:32.156Z,41.87
2018-11-07T15:08:01.720Z,40.53
2018-11-07T15:10:30.299Z,40.77
2018-11-07T15:12:58.959Z,41.73
2018-11-07T15:15:27.681Z,39.93
2018-11-07T15:17:56.298Z,39.87
2018-11-07T15:20:26.173Z,41.70
2018-11-07T15:22:54.846Z,38.57
2018-11-07T15:25:23.481Z,40.20
2018-11-07T15:27:52.131Z,40.23
2018-11-07T15:30:20.810Z,42.23
2018-11-07T15:32:49.410Z,41.37
2018-11-07T15:35:18.030Z,39.70
2018-11-07T15:37:46.771Z,40.80
2018-11-07T15:40:17.026Z,42.70
2018-11-07T15:42:46.249Z,40.27
2018-11-07T15:45:19.282Z,39.97
2018-11-07T15:47:47.908Z,39.83
2018-11-07T15:50:21.862Z,42.10
2018-11-07T15:52:50.878Z,41.40
2018-11-07T15:55:19.619Z,41.20
2018-11-07T15:57:48.291Z,41.10
2018-11-07T16:00:17.946Z,41.23
2018-11-07T16:02:46.601Z,44.70
2018-11-07T16:05:16.277Z,42.13
2018-11-07T16:07:44.983Z,42.90
2018-11-07T16:10:14.683Z,42.73
2018-11-07T16:12:43.564Z,40.67
2018-11-07T16:15:14.892Z,42.30
2018-11-07T16:17:43.786Z,43.87
2018-11-07T16:20:14.847Z,43.47
2018-11-07T16:22:44.530Z,43.40
2018-11-07T16:25:13.254Z,43.60
2018-11-07T16:27:42.783Z,42.33
2018-11-07T16:30:13.861Z,42.07
2018-11-07T16:32:42.645Z,45.33
2018-11-07T16:35:12.526Z,43.20
2018-11-07T16:37:41.634Z,45.70
2018-11-07T16:40:12.093Z,45.00
2018-11-07T16:42:41.341Z,43.57
2018-11-07T16:45:11.143Z,45.97
2018-11-07T16:47:39.908Z,45.40
2018-11-07T16:50:09.851Z,44.93
2018-11-07T16:52:38.922Z,44.60
2018-11-07T16:55:07.746Z,43.73
2018-11-07T16:57:37.086Z,44.27
2018-11-07T17:00:07.776Z,44.90
2018-11-07T17:02:36.971Z,45.83
2018-11-07T17:05:05.873Z,45.50
2018-11-07T17:07:34.511Z,43.80
2018-11-07T17:10:03.209Z,44.97
2018-11-07T17:12:31.843Z,45.00
2018-11-07T17:15:00.514Z,47.60
2018-11-07T17:17:29.238Z,47.37
2018-11-07T17:19:57.921Z,46.57
2018-11-07T17:22:26.851Z,46.10
2018-11-07T17:24:55.525Z,46.90
2018-11-07T17:27:24.331Z,44.13
2018-11-07T17:29:53.518Z,47.43
2018-11-07T17:32:22.218Z,45.77
2018-11-07T17:34:50.856Z,45.80
2018-11-07T17:37:19.480Z,47.07
2018-11-07T17:39:48.154Z,46.77
2018-11-07T17:42:16.907Z,46.40
2018-11-07T17:44:45.608Z,48.33
2018-11-07T17:47:14.302Z,46.87
2018-11-07T17:49:43.025Z,49.57
2018-11-07T17:52:11.764Z,48.80
2018-11-07T17:54:40.521Z,47.30
2018-11-07T17:57:09.231Z,45.20
2018-11-07T17:59:38.234Z,46.20
2018-11-07T18:02:06.973Z,46.03
2018-11-07T18:04:35.767Z,46.23
2018-11-07T18:07:04.527Z,45.50
2018-11-07T18:09:33.407Z,48.03
2018-11-07T18:12:02.113Z,44.47
2018-11-07T18:14:30.789Z,48.10
2018-11-07T18:16:59.627Z,47.50
2018-11-07T18:19:28.362Z,48.27
2018-11-07T18:21:57.033Z,47.20
2018-11-07T18:24:25.668Z,50.47
2018-11-07T18:26:54.390Z,47.97
2018-11-07T18:29:23.106Z,49.30
2018-11-07T18:31:51.808Z,50.10
2018-11-07T18:34:20.500Z,50.37
2018-11-07T18:36:49.183Z,49.00
2018-11-07T18:39:17.867Z,48.43
2018-11-07T18:41:46.568Z,47.30
2018-11-07T18:44:15.376Z,52.57
2018-11-07T18:46:44.726Z,52.43
2018-11-07T18:49:13.673Z,50.87
2018-11-07T18:51:42.543Z,49.70
2018-11-07T18:54:11.247Z,53.87
2018-11-07T18:56:39.877Z,51.00
2018-11-07T18:59:08.664Z,50.87
2018-11-07T19:01:37.816Z,48.70
2018-11-07T19:04:06.450Z,50.73
2018-11-07T19:06:35.205Z,51.50
2018-11-07T19:09:06.930Z,52.07
2018-11-07T19:11:35.683Z,54.27
2018-11-07T19:14:04.575Z,53.00
2018-11-07T19:16:33.443Z,52.27
2018-11-07T19:19:02.163Z,52.17
2018-11-07T19:21:31.309Z,51.70
2018-11-07T19:23:59.972Z,51.67
2018-11-07T19:26:29.333Z,53.83
2018-11-07T19:28:58.016Z,48.73
2018-11-07T19:31:26.707Z,51.70
2018-11-07T19:33:55.582Z,51.43
2018-11-07T19:36:24.286Z,50.60
2018-11-07T19:38:53.035Z,50.03
2018-11-07T19:41:21.967Z,52.20
2018-11-07T19:43:51.313Z,51.77
2018-11-07T19:46:20.001Z,48.40
2018-11-07T19:48:48.677Z,48.13
2018-11-07T19:51:17.355Z,50.70
2018-11-07T19:53:46.024Z,50.37
2018-11-07T19:56:14.923Z,50.17
2018-11-07T19:58:43.580Z,48.00
2018-11-07T20:01:12.217Z,47.40
2018-11-07T20:03:40.898Z,46.07
2018-11-07T20:06:09.697Z,48.10
2018-11-07T20:08:38.342Z,45.80
2018-11-07T20:11:07.089Z,45.57
2018-11-07T20:13:35.917Z,45.07
2018-11-07T20:16:04.660Z,45.77
2018-11-07T20:18:36.103Z,48.57
2018-11-07T20:21:11.245Z,46.40
2018-11-07T20:23:39.938Z,46.97
2018-11-07T20:26:08.577Z,47.03
2018-11-07T20:28:38.027Z,46.20
2018-11-07T20:31:06.771Z,46.20
2018-11-07T20:33:35.424Z,48.77
2018-11-07T20:36:04.154Z,47.67
2018-11-07T20:38:33.395Z,48.00
2018-11-07T20:41:08.895Z,47.80
2018-11-07T20:43:37.521Z,45.80
2018-11-07T20:46:06.499Z,47.50
2018-11-07T20:48:35.145Z,47.23
2018-11-07T20:51:03.930Z,47.47
2018-11-07T20:53:32.662Z,45.37
2018-11-07T20:56:01.421Z,48.13
2018-11-07T20:58:30.254Z,48.03
2018-11-07T21:00:59.123Z,49.60
2018-11-07T21:03:28.138Z,48.90
2018-11-07T21:06:00.324Z,49.17
2018-11-07T21:08:29.353Z,48.90
2018-11-07T21:10:58.104Z,50.60
2018-11-07T21:13:26.899Z,50.37
2018-11-07T21:15:55.687Z,49.80
2018-11-07T21:18:24.323Z,51.00
2018-11-07T21:20:53.087Z,52.50
2018-11-07T21:23:21.877Z,51.43
2018-11-07T21:25:50.513Z,54.10
2018-11-07T21:28:19.185Z,50.60
2018-11-07T21:30:47.847Z,50.47
2018-11-07T21:33:16.538Z,52.13
2018-11-07T21:35:45.226Z,50.30
2018-11-07T21:38:13.919Z,51.83
2018-11-07T21:40:42.746Z,53.13
2018-11-07T21:43:11.502Z,53.33
2018-11-07T21:48:14.105Z,53.33
2018-11-07T21:50:42.746Z,54.50
2018-11-07T21:53:11.599Z,51.13
2018-11-07T21:55:40.245Z,51.63
2018-11-07T21:58:08.910Z,54.00
2018-11-07T22:00:37.617Z,52.00
2018-11-07T22:03:06.341Z,54.60
2018-11-07T22:05:34.978Z,54.83
2018-11-07T22:08:03.622Z,55.27
2018-11-07T22:10:32.265Z,55.90
2018-11-07T22:13:01.005Z,56.03
2018-11-07T22:15:29.615Z,53.40
2018-11-07T22:17:58.281Z,53.97
2018-11-07T22:20:26.876Z,52.93
2018-11-07T22:22:55.508Z,52.63
2018-11-07T22:25:24.182Z,51.67
2018-11-07T22:27:52.840Z,52.07
2018-11-07T22:30:21.478Z,52.53
2018-11-07T22:32:50.092Z,55.17
2018-11-07T22:35:18.974Z,52.40
2018-11-07T22:37:47.813Z,54.13
2018-11-07T22:40:17.739Z,52.77
2018-11-07T22:42:46.393Z,53.80
2018-11-07T22:45:15.407Z,52.27
2018-11-07T22:47:44.072Z,53.27
2018-11-07T22:50:13.840Z,55.60
2018-11-07T22:52:43.687Z,55.93
2018-11-07T22:55:12.437Z,53.43
2018-11-07T22:57:41.103Z,53.10
2018-11-07T23:00:19.489Z,50.87
2018-11-07T23:02:50.751Z,52.40
2018-11-07T23:05:19.527Z,50.27
2018-11-07T23:07:48.960Z,52.17
2018-11-07T23:10:17.717Z,50.77
2018-11-07T23:12:46.902Z,51.43
2018-11-07T23:15:21.023Z,50.27
2018-11-07T23:17:50.222Z,52.60
2018-11-07T23:20:19.426Z,52.50
2018-11-07T23:22:48.247Z,50.17
2018-11-07T23:25:24.704Z,52.67
2018-11-07T23:27:53.569Z,51.33
2018-11-07T23:30:22.488Z,54.03
2018-11-07T23:32:51.873Z,49.47
2018-11-07T23:35:20.536Z,54.50
2018-11-07T23:37:49.244Z,54.00
2018-11-07T23:40:19.079Z,53.53
2018-11-07T23:42:48.000Z,50.13
2018-11-07T23:45:16.846Z,54.57
2018-11-07T23:47:45.522Z,52.00
2018-11-07T23:50:14.871Z,51.30
2018-11-07T23:52:49.164Z,53.00
2018-11-07T23:55:19.519Z,54.13
2018-11-07T23:57:49.089Z,53.50
